createdAt,value
2019-03-22T00:01:33.256Z,37.73
2019-03-22T00:06:40.930Z,37.35
2019-03-22T00:11:48.799Z,35.92
2019-03-22T00:16:57.574Z,35.80
2019-03-22T00:22:05.871Z,38.13
2019-03-22T00:27:16.781Z,38.25
2019-03-22T00:32:24.310Z,36.28
2019-03-22T00:37:32.029Z,40.65
2019-03-22T00:42:40.249Z,39.85
2019-03-22T00:47:48.076Z,36.05
2019-03-22T00:52:56.302Z,37.83
2019-03-22T01:03:13.371Z,34.38
2019-03-22T01:08:21.561Z,35.70
2019-03-22T01:13:30.448Z,36.80
2019-03-22T01:19:09.776Z,35.15
2019-03-22T01:24:19.620Z,34.05
2019-03-22T01:29:29.090Z,33.67
2019-03-22T01:34:37.578Z,33.45
2019-03-22T01:39:48.066Z,32.23
2019-03-22T01:44:56.043Z,32.50
2019-03-22T01:50:03.868Z,33.65
2019-03-22T01:57:16.041Z,32.03
2019-03-22T02:02:24.470Z,33.10
2019-03-22T02:07:33.563Z,30.15
2019-03-22T02:12:41.513Z,31.73
2019-03-22T02:17:49.767Z,30.90
2019-03-22T02:22:57.769Z,33.25
2019-03-22T02:28:08.434Z,32.95
2019-03-22T02:33:16.103Z,32.33
2019-03-22T02:38:24.261Z,30.82
2019-03-22T02:43:32.434Z,29.77
2019-03-22T02:48:41.576Z,31.37
2019-03-22T02:53:50.074Z,31.23
2019-03-22T02:58:59.364Z,31.25
2019-03-22T03:04:07.627Z,29.25
2019-03-22T03:09:16.214Z,30.25
2019-03-22T03:14:24.556Z,30.43
2019-03-22T03:19:34.432Z,31.07
2019-03-22T03:24:44.244Z,31.35
2019-03-22T03:29:52.051Z,30.17
2019-03-22T03:35:01.638Z,31.52
2019-03-22T03:40:12.640Z,30.82
2019-03-22T03:45:35.932Z,29.05
2019-03-22T03:50:45.225Z,30.80
2019-03-22T03:55:53.457Z,29.37
2019-03-22T04:01:02.374Z,28.98
2019-03-22T04:06:11.677Z,28.92
2019-03-22T04:11:20.017Z,29.05
2019-03-22T04:16:28.052Z,30.62
2019-03-22T04:21:37.438Z,31.02
2019-03-22T04:26:46.122Z,30.30
2019-03-22T04:31:54.585Z,31.12
2019-03-22T04:37:02.532Z,31.95
2019-03-22T04:42:10.421Z,29.85
2019-03-22T04:47:23.657Z,31.45
2019-03-22T04:52:32.565Z,30.50
2019-03-22T04:57:43.364Z,30.80
2019-03-22T05:02:52.572Z,30.62
2019-03-22T05:08:01.918Z,31.42
2019-03-22T05:13:12.581Z,31.62
2019-03-22T05:18:21.580Z,31.40
2019-03-22T05:23:31.044Z,32.23
2019-03-22T05:28:39.620Z,30.88
2019-03-22T05:33:47.443Z,30.75
2019-03-22T05:44:02.036Z,34.55
2019-03-22T05:49:11.570Z,30.23
2019-03-22T05:54:20.322Z,32.48
2019-03-22T05:59:29.022Z,31.83
2019-03-22T06:04:38.591Z,30.10
2019-03-22T06:09:47.441Z,32.33
2019-03-22T06:14:55.559Z,33.98
2019-03-22T06:20:04.553Z,33.50
2019-03-22T06:25:12.568Z,33.13
2019-03-22T06:30:20.434Z,32.85
2019-03-22T06:35:28.589Z,34.43
2019-03-22T06:40:36.580Z,33.25
2019-03-22T06:45:46.056Z,33.15
2019-03-22T06:50:54.414Z,35.83
2019-03-22T06:56:02.111Z,38.35
2019-03-22T07:01:10.490Z,39.90
2019-03-22T07:06:18.844Z,35.45
2019-03-22T07:11:27.560Z,35.88
2019-03-22T07:16:36.245Z,38.28
2019-03-22T07:21:45.576Z,36.42
2019-03-22T07:26:53.573Z,36.38
2019-03-22T07:32:02.617Z,36.23
2019-03-22T07:37:11.097Z,36.83
2019-03-22T07:49:30.337Z,34.85
2019-03-22T07:54:39.332Z,35.40
2019-03-22T07:59:49.432Z,37.28
2019-03-22T08:04:57.564Z,35.68
2019-03-22T08:10:09.080Z,35.05
2019-03-22T08:15:30.597Z,35.83
2019-03-22T08:20:39.630Z,34.27
2019-03-22T08:30:55.168Z,32.28
2019-03-22T08:36:03.240Z,32.70
2019-03-22T08:41:11.421Z,32.45
2019-03-22T08:46:19.910Z,33.33
2019-03-22T08:51:29.838Z,35.20
2019-03-22T08:56:38.103Z,35.65
2019-03-22T09:01:47.341Z,35.45
2019-03-22T09:12:03.242Z,32.63
2019-03-22T09:17:11.081Z,29.87
2019-03-22T09:22:18.889Z,29.90
2019-03-22T09:27:28.083Z,31.93
2019-03-22T09:32:36.582Z,32.67
2019-03-22T09:37:45.253Z,34.65
2019-03-22T09:42:53.861Z,35.73
2019-03-22T09:48:01.689Z,37.23
2019-03-22T09:53:11.548Z,37.03
2019-03-22T09:58:19.564Z,36.73
2019-03-22T10:03:28.062Z,37.20
2019-03-22T10:08:37.256Z,36.33
2019-03-22T10:13:48.373Z,36.70
2019-03-22T10:18:56.649Z,35.88
2019-03-22T10:24:04.663Z,40.25
2019-03-22T10:29:13.567Z,33.75
2019-03-22T10:34:24.817Z,32.63
2019-03-22T10:39:31.637Z,29.20
2019-03-22T10:44:40.070Z,27.07
2019-03-22T10:54:56.241Z,27.90
2019-03-22T11:00:04.918Z,26.42
2019-03-22T11:05:15.110Z,25.62
2019-03-22T11:10:23.907Z,27.35
2019-03-22T11:15:32.276Z,23.92
2019-03-22T11:20:40.068Z,24.00
2019-03-22T11:25:48.554Z,23.15
2019-03-22T11:31:04.547Z,23.87
2019-03-22T11:36:06.107Z,23.55
2019-03-22T11:41:14.256Z,24.23
2019-03-22T11:46:22.209Z,26.50
2019-03-22T11:51:30.106Z,26.33
2019-03-22T11:56:38.264Z,28.67
2019-03-22T12:06:53.838Z,26.55
2019-03-22T12:12:02.246Z,26.62
2019-03-22T12:22:17.053Z,25.17
2019-03-22T12:27:36.109Z,28.75
2019-03-22T12:32:36.254Z,27.58
2019-03-22T12:42:53.582Z,24.47
2019-03-22T12:48:02.848Z,26.77
2019-03-22T12:53:10.670Z,26.70
2019-03-22T12:59:53.562Z,25.62
2019-03-22T13:05:02.118Z,26.27
2019-03-22T13:10:11.249Z,25.95
2019-03-22T13:15:20.246Z,25.92
2019-03-22T13:25:34.405Z,25.75
2019-03-22T13:30:42.637Z,24.77
2019-03-22T13:35:52.585Z,25.37
2019-03-22T13:41:00.585Z,43.42
2019-03-22T13:46:08.733Z,24.90
2019-03-22T13:51:16.637Z,32.15
2019-03-22T13:56:25.451Z,24.80
2019-03-22T14:01:33.466Z,26.00
2019-03-22T14:06:41.576Z,24.02
2019-03-22T14:11:49.417Z,28.55
2019-03-22T14:16:57.245Z,24.18
2019-03-22T14:27:11.653Z,22.75
2019-03-22T14:32:19.641Z,24.25
2019-03-22T14:37:27.844Z,24.35
2019-03-22T14:42:35.660Z,24.35
2019-03-22T14:47:44.419Z,24.82
2019-03-22T14:52:53.532Z,25.25
2019-03-22T14:58:02.049Z,24.90
2019-03-22T15:03:24.759Z,27.13
2019-03-22T15:08:32.655Z,26.30
2019-03-22T15:13:55.565Z,25.62
2019-03-22T15:19:14.223Z,25.37
2019-03-22T15:24:31.571Z,24.63
2019-03-22T15:30:07.650Z,25.62
2019-03-22T15:35:27.984Z,24.55
2019-03-22T15:40:36.259Z,24.27
2019-03-22T15:45:44.065Z,24.05
2019-03-22T15:50:52.355Z,24.18
2019-03-22T15:56:00.254Z,25.37
2019-03-22T16:01:08.693Z,24.85
2019-03-22T16:11:23.044Z,24.10
2019-03-22T16:16:31.259Z,25.72
2019-03-22T16:26:45.917Z,26.50
2019-03-22T16:31:55.061Z,30.10
2019-03-22T16:37:03.699Z,28.95
2019-03-22T16:42:12.076Z,25.68
2019-03-22T16:47:19.927Z,26.50
2019-03-22T16:52:27.842Z,28.15
2019-03-22T16:57:36.564Z,29.10
2019-03-22T17:02:45.590Z,29.32
2019-03-22T17:07:53.578Z,30.68
2019-03-22T17:13:01.709Z,38.92
2019-03-22T17:18:09.851Z,36.55
2019-03-22T17:23:17.671Z,35.52
2019-03-22T17:28:26.607Z,31.75
2019-03-22T17:33:35.229Z,29.00
2019-03-22T17:38:43.577Z,27.67
2019-03-22T17:43:51.562Z,27.55
2019-03-22T17:49:00.565Z,27.65
2019-03-22T17:54:08.637Z,28.62
2019-03-22T17:59:16.666Z,28.57
2019-03-22T18:04:24.642Z,30.45
2019-03-22T18:09:33.698Z,30.52
2019-03-22T18:14:42.106Z,32.10
2019-03-22T18:24:56.412Z,33.40
2019-03-22T18:30:06.585Z,33.95
2019-03-22T18:35:15.259Z,33.42
2019-03-22T18:40:24.233Z,34.98
2019-03-22T18:45:32.253Z,38.33
2019-03-22T18:50:40.914Z,38.45
2019-03-22T18:55:48.918Z,40.85
2019-03-22T19:00:58.233Z,39.25
2019-03-22T19:06:06.106Z,41.98
2019-03-22T19:11:14.765Z,43.20
2019-03-22T19:20:09.245Z,43.10
2019-03-22T19:25:17.580Z,43.50
2019-03-22T19:30:25.553Z,46.60
2019-03-22T19:35:34.248Z,47.20
2019-03-22T19:40:43.124Z,47.30
2019-03-22T19:45:51.035Z,47.40
2019-03-22T19:50:59.488Z,44.65
2019-03-22T19:56:09.414Z,46.40
2019-03-22T20:01:18.861Z,46.70
2019-03-22T20:06:27.489Z,47.70
2019-03-22T20:14:52.253Z,46.85
2019-03-22T20:20:00.691Z,47.53
2019-03-22T20:25:09.581Z,47.03
2019-03-22T20:30:19.431Z,49.93
2019-03-22T20:35:27.459Z,48.30
2019-03-22T20:43:09.675Z,46.15
2019-03-22T20:48:18.554Z,47.27
2019-03-22T20:53:26.586Z,47.83
2019-03-22T20:58:35.424Z,47.53
2019-03-22T21:03:43.418Z,49.95
2019-03-22T21:08:51.396Z,48.85
2019-03-22T21:14:00.067Z,48.05
2019-03-22T21:19:09.059Z,48.78
2019-03-22T21:24:16.928Z,50.12
2019-03-22T21:29:25.076Z,48.80
2019-03-22T21:34:33.254Z,48.63
2019-03-22T21:44:48.240Z,50.80
2019-03-22T21:49:56.287Z,50.03
2019-03-22T21:55:04.057Z,49.40
2019-03-22T22:00:13.452Z,49.93
2019-03-22T22:05:21.260Z,50.95
2019-03-22T22:10:29.661Z,50.30
2019-03-22T22:15:37.603Z,51.08
2019-03-22T22:20:45.854Z,51.10
2019-03-22T22:25:54.460Z,49.33
2019-03-22T22:31:02.456Z,50.67
2019-03-22T22:36:10.430Z,50.10
2019-03-22T22:41:18.070Z,51.02
2019-03-22T22:46:26.588Z,51.10
2019-03-22T22:51:34.858Z,53.85
2019-03-22T22:56:44.246Z,50.55
2019-03-22T23:01:52.418Z,52.20
2019-03-22T23:07:00.588Z,53.17
2019-03-22T23:12:08.589Z,53.92
2019-03-22T23:17:16.591Z,51.55
2019-03-22T23:22:24.646Z,51.33
2019-03-22T23:27:33.723Z,51.75
2019-03-22T23:32:41.671Z,52.90
2019-03-22T23:37:51.259Z,52.88
2019-03-22T23:51:58.125Z,52.65
2019-03-22T23:57:06.390Z,53.75
